Kake, AK (99830)

2:20 AM AKST on February 09, 2016 (GMT -0900)
RAWS | | Change Station
CLOSE
Current Station
Personal Weather Station
Location: Kake, AK
Elevation: 399 ft
Nearby Weather Stations

Elev 399 ft 56.97 °N, 133.66 °W | Updated 1 hour ago

Partly Cloudy
Partly Cloudy
42.0 °F
Feels Like 42.0 °F
N
3.0
Wind Variable Wind from WNW
Gusts 8.0 mph

Today
High -- | Low -- °F
--% Chance of Precip.
Yesterday
High -- | Low -- °F
Precip. -- in
Pressure 30.19 in
Visibility 10.0 miles
Clouds Few 8500 ft
Dew Point 42.0 °F
Humidity 100%
Rainfall in
Snow Depth Not available.
7:38 AM 4:42 PM
New Moon, 1% visible
METAR PAFE 091116Z AUTO 10003KT 10SM FEW085 06/04 A3019 RMK AO1
Pressure 30.19 in
Visibility 10.0 miles
Clouds Few 8500 ft
Dew Point 42.0 °F
Humidity 100%
Rainfall in
Snow Depth Not available.
7:38 AM 4:42 PM
New Moon, 1% visible
METAR PAFE 091116Z AUTO 10003KT 10SM FEW085 06/04 A3019 RMK AO1

10-Day Weather Forecast

Almanac

Astronomy

Feb. 09, 2016 Rise Set
Actual Time
Civil Twilight
Nautical Twilight
Astronomical Twilight
Moon
Length of Visible Light
Length of Day
Tomorrow will be .
, % of the Moon is Illuminated

Today's Extremes

State Highs State Lows

Community

WunderPhotos

Upload Photos

1,891,565 photos uploaded!

WunderBlog® & News

Nearby

Air Quality

  Air Quality AQ Index Pollutant
Not available.

Snow Depth

Station Depth Elevation

Earthquake Activity

City Distance Mag. Time & Date
Minimum magnitude displayed is 2.5.

Coastal Water Temperatures

Place Temperature

Stations

Nearby Weather Stations

Station Location Temp. Windchill Dew Point Humidity Wind Precip. Elev Updated Type
                   

Watches & Warnings

There are currently no watches in effect.